Adams, Kentucky
Current Conditions -  °F | °C
As of 4:55 AM on Saturday 29 Nov 2014 (Local Time) from KSJS Reporting Station
Overcast Overcast  
Wind Chill: 31°   Ceiling: 6500
Heat Index: 36°   Visibility: 10mi
Dew Point: 21°   Wind: 6mph
Humidity: 56%   Direction: 160°SSE
Pressure: 30.15"   Gusts: NA
Location:  38.05°N, 82.71°W
Report Text: KSJS 290955Z AUTO 16005KT 10SM OVC065 02/M06 A3015 RMK AO2 T00201060
Loading
Personal Weather Stations






























Interactive Weather Map New forecast layout! Learn more

10-Day Weather Forecast

Advertisements
Track Severe Weather on mobile